createdAt,value
2018-03-31T00:02:21.633Z,8.40
2018-03-31T00:04:49.195Z,8.30
2018-03-31T00:07:16.757Z,8.30
2018-03-31T00:09:44.221Z,8.30
2018-03-31T00:12:11.698Z,8.30
2018-03-31T00:14:39.119Z,8.30
2018-03-31T00:17:06.610Z,8.20
2018-03-31T00:19:34.041Z,8.30
2018-03-31T00:22:01.545Z,8.20
2018-03-31T00:24:28.992Z,8.20
2018-03-31T00:26:56.470Z,8.20
2018-03-31T00:29:23.972Z,8.20
2018-03-31T00:31:51.445Z,8.20
2018-03-31T00:34:18.911Z,8.10
2018-03-31T00:36:46.364Z,8.10
2018-03-31T00:39:13.848Z,8.10
2018-03-31T00:41:41.293Z,8.10
2018-03-31T00:44:08.751Z,8.10
2018-03-31T00:46:36.225Z,8.10
2018-03-31T00:49:03.685Z,8.10
2018-03-31T00:51:31.355Z,8.10
2018-03-31T00:53:58.809Z,8.10
2018-03-31T00:56:26.277Z,8.10
2018-03-31T00:59:01.008Z,8.10
2018-03-31T01:01:28.560Z,8.10
2018-03-31T01:03:56.007Z,8.10
2018-03-31T01:06:23.446Z,8.10
2018-03-31T01:08:50.901Z,8.10
2018-03-31T01:11:19.098Z,8.00
2018-03-31T01:13:46.554Z,8.00
2018-03-31T01:16:13.964Z,8.00
2018-03-31T01:18:42.194Z,7.90
2018-03-31T01:21:09.639Z,7.90
2018-03-31T01:23:37.117Z,7.90
2018-03-31T01:26:04.594Z,7.90
2018-03-31T01:28:31.996Z,7.90
2018-03-31T01:30:59.458Z,7.90
2018-03-31T01:33:26.896Z,7.90
2018-03-31T01:35:55.145Z,7.90
2018-03-31T01:38:22.709Z,7.80
2018-03-31T01:40:50.179Z,7.90
2018-03-31T01:43:17.620Z,7.80
2018-03-31T01:45:45.258Z,7.80
2018-03-31T01:48:12.727Z,7.80
2018-03-31T01:50:40.191Z,7.80
2018-03-31T01:53:07.650Z,7.80
2018-03-31T01:55:35.096Z,7.80
2018-03-31T01:58:02.563Z,7.80
2018-03-31T02:00:30.042Z,7.70
2018-03-31T02:02:57.474Z,7.80
2018-03-31T02:05:24.934Z,7.70
2018-03-31T02:07:52.498Z,7.70
2018-03-31T02:10:22.366Z,7.70
2018-03-31T02:12:49.820Z,7.60
2018-03-31T02:15:17.287Z,7.60
2018-03-31T02:17:45.539Z,7.60
2018-03-31T02:20:12.988Z,7.50
2018-03-31T02:22:40.418Z,7.60
2018-03-31T02:25:07.857Z,7.50
2018-03-31T02:27:35.340Z,7.50
2018-03-31T02:30:02.782Z,7.50
2018-03-31T02:32:30.212Z,7.50
2018-03-31T02:34:57.651Z,7.50
2018-03-31T02:37:25.089Z,7.50
2018-03-31T02:39:52.616Z,7.40
2018-03-31T02:42:20.254Z,7.50
2018-03-31T02:44:47.735Z,7.40
2018-03-31T02:47:15.183Z,7.40
2018-03-31T02:49:42.656Z,7.40
2018-03-31T02:52:10.859Z,7.30
2018-03-31T02:54:38.305Z,7.30
2018-03-31T02:57:05.733Z,7.30
2018-03-31T02:59:33.944Z,7.20
2018-03-31T03:02:01.410Z,7.20
2018-03-31T03:04:28.886Z,7.20
2018-03-31T03:06:56.386Z,7.20
2018-03-31T03:09:23.851Z,7.20
2018-03-31T03:11:51.273Z,7.20
2018-03-31T03:14:18.729Z,7.20
2018-03-31T03:16:46.165Z,7.20
2018-03-31T03:19:13.612Z,7.20
2018-03-31T03:21:40.863Z,7.20
2018-03-31T03:24:09.043Z,7.20
2018-03-31T03:26:37.288Z,7.20
2018-03-31T03:29:04.754Z,7.20
2018-03-31T03:31:32.214Z,7.20
2018-03-31T03:33:59.684Z,7.20
2018-03-31T03:36:27.137Z,7.20
2018-03-31T03:38:58.134Z,7.20
2018-03-31T03:41:25.594Z,7.20
2018-03-31T03:43:53.036Z,7.10
2018-03-31T03:46:20.468Z,7.00
2018-03-31T03:48:48.668Z,7.00
2018-03-31T03:51:16.105Z,7.00
2018-03-31T03:53:44.300Z,7.00
2018-03-31T03:56:11.759Z,6.90
2018-03-31T03:58:40.012Z,6.90
2018-03-31T04:01:07.443Z,6.90
2018-03-31T04:03:34.932Z,6.90
2018-03-31T04:06:02.380Z,6.90
2018-03-31T04:08:29.886Z,6.90
2018-03-31T04:10:57.362Z,6.80
2018-03-31T04:13:24.829Z,6.80
2018-03-31T04:15:52.286Z,6.70
2018-03-31T04:18:19.705Z,6.70
2018-03-31T04:20:47.158Z,6.70
2018-03-31T04:23:15.411Z,6.60
2018-03-31T04:25:42.853Z,6.60
2018-03-31T04:28:10.316Z,6.70
2018-03-31T04:30:37.764Z,6.70
2018-03-31T04:33:05.226Z,6.70
2018-03-31T04:35:32.659Z,6.60
2018-03-31T04:38:00.123Z,6.60
2018-03-31T04:40:27.562Z,6.60
2018-03-31T04:42:55.037Z,6.60
2018-03-31T04:45:22.482Z,6.50
2018-03-31T04:47:50.724Z,6.50
2018-03-31T04:50:18.154Z,6.40
2018-03-31T04:52:45.664Z,6.40
2018-03-31T04:55:13.120Z,6.40
2018-03-31T04:57:40.588Z,6.40
2018-03-31T05:00:08.843Z,6.40
2018-03-31T05:02:36.376Z,6.40
2018-03-31T05:05:03.847Z,6.40
2018-03-31T05:07:31.439Z,6.50
2018-03-31T05:09:58.890Z,6.50
2018-03-31T05:12:26.161Z,6.50
2018-03-31T05:14:54.385Z,6.60
2018-03-31T05:17:21.794Z,6.50
2018-03-31T05:19:49.249Z,6.60
2018-03-31T05:22:17.494Z,6.60
2018-03-31T05:24:44.967Z,6.60
2018-03-31T05:27:12.535Z,6.70
2018-03-31T05:29:39.999Z,6.70
2018-03-31T05:32:07.484Z,6.70
2018-03-31T05:34:34.957Z,6.70
2018-03-31T05:37:02.234Z,6.70
2018-03-31T05:39:29.673Z,6.80
2018-03-31T05:41:57.224Z,6.80
2018-03-31T05:44:25.492Z,6.80
2018-03-31T05:46:52.938Z,6.80
2018-03-31T05:49:20.423Z,6.90
2018-03-31T05:51:47.890Z,6.90
2018-03-31T05:54:15.396Z,6.90
2018-03-31T05:56:42.837Z,6.90
2018-03-31T05:59:10.281Z,7.00
2018-03-31T06:01:37.709Z,7.00
2018-03-31T06:04:05.168Z,7.00
2018-03-31T06:06:33.402Z,7.00
2018-03-31T06:09:00.911Z,7.00
2018-03-31T06:11:28.542Z,7.10
2018-03-31T06:13:55.997Z,7.10
2018-03-31T06:16:23.494Z,7.20
2018-03-31T06:18:50.931Z,7.20
2018-03-31T06:21:18.397Z,7.20
2018-03-31T06:23:45.849Z,7.30
2018-03-31T06:26:13.300Z,7.30
2018-03-31T06:28:40.746Z,7.40
2018-03-31T06:31:08.208Z,7.40
2018-03-31T06:33:35.465Z,7.50
2018-03-31T06:36:02.948Z,7.50
2018-03-31T06:38:30.413Z,7.50
2018-03-31T06:40:57.859Z,7.60
2018-03-31T06:43:25.378Z,7.50
2018-03-31T06:45:52.781Z,7.50
2018-03-31T06:48:20.290Z,7.50
2018-03-31T06:50:47.733Z,7.50
2018-03-31T06:53:15.994Z,7.60
2018-03-31T06:55:43.413Z,7.60
2018-03-31T06:58:10.878Z,7.60
2018-03-31T07:00:38.332Z,7.60
2018-03-31T07:03:05.768Z,7.60
2018-03-31T07:05:33.227Z,7.70
2018-03-31T07:08:00.716Z,7.70
2018-03-31T07:10:28.184Z,7.80
2018-03-31T07:12:55.683Z,7.80
2018-03-31T07:15:23.898Z,8.00
2018-03-31T07:17:51.388Z,7.90
2018-03-31T07:20:19.031Z,8.00
2018-03-31T07:22:46.616Z,8.10
2018-03-31T07:25:14.104Z,8.10
2018-03-31T07:27:41.706Z,8.20
2018-03-31T07:30:14.131Z,8.30
2018-03-31T07:32:41.603Z,8.30
2018-03-31T07:35:09.341Z,8.40
2018-03-31T07:37:37.850Z,8.60
2018-03-31T07:40:05.488Z,8.50
2018-03-31T07:42:32.921Z,8.60
2018-03-31T07:45:00.345Z,8.60
2018-03-31T07:47:28.563Z,8.60
2018-03-31T07:49:56.056Z,8.60
2018-03-31T07:52:23.479Z,8.60
2018-03-31T07:54:50.896Z,8.60
2018-03-31T07:57:19.116Z,8.90
2018-03-31T07:59:46.547Z,8.80
2018-03-31T08:02:14.787Z,8.90
2018-03-31T08:04:42.245Z,8.90
2018-03-31T08:07:09.915Z,8.90
2018-03-31T08:09:37.389Z,9.00
2018-03-31T08:12:04.856Z,9.10
2018-03-31T08:14:33.093Z,9.10
2018-03-31T08:17:00.693Z,9.10
2018-03-31T08:19:28.166Z,9.10
2018-03-31T08:21:56.746Z,9.40
2018-03-31T08:24:24.959Z,9.50
2018-03-31T08:26:52.480Z,9.50
2018-03-31T08:29:19.971Z,9.50
2018-03-31T08:31:47.468Z,9.70
2018-03-31T08:34:14.980Z,9.90
2018-03-31T08:36:42.430Z,9.80
2018-03-31T08:39:10.671Z,10.10
2018-03-31T08:41:38.191Z,10.00
2018-03-31T08:44:05.454Z,10.00
2018-03-31T08:46:32.891Z,10.10
2018-03-31T08:49:01.140Z,10.20
2018-03-31T08:51:28.589Z,10.10
2018-03-31T08:53:56.063Z,10.10
2018-03-31T08:56:23.496Z,10.20
2018-03-31T08:58:51.007Z,10.10
2018-03-31T09:01:19.224Z,10.00
2018-03-31T09:03:46.678Z,10.00
2018-03-31T09:06:14.211Z,10.10
2018-03-31T09:08:42.405Z,10.10
2018-03-31T09:11:10.605Z,10.10
2018-03-31T09:13:38.121Z,10.10
2018-03-31T09:16:06.350Z,10.30
2018-03-31T09:18:33.809Z,10.30
2018-03-31T09:21:01.292Z,10.50
2018-03-31T09:23:28.830Z,10.60
2018-03-31T09:25:56.276Z,10.90
2018-03-31T09:28:23.733Z,10.90
2018-03-31T09:30:51.189Z,11.10
2018-03-31T09:33:19.461Z,11.20
2018-03-31T09:35:46.890Z,11.20
2018-03-31T09:38:14.401Z,11.40
2018-03-31T09:40:41.825Z,11.40
2018-03-31T09:43:09.268Z,11.50
2018-03-31T09:45:37.493Z,11.20
2018-03-31T09:48:04.965Z,11.20
2018-03-31T09:50:32.438Z,11.50
2018-03-31T09:53:00.013Z,11.90
2018-03-31T09:55:27.476Z,11.90
2018-03-31T09:58:03.049Z,12.10
2018-03-31T10:00:36.469Z,12.20
2018-03-31T10:03:03.911Z,12.60
2018-03-31T10:05:31.354Z,13.00
2018-03-31T10:07:59.627Z,12.80
2018-03-31T10:10:27.133Z,12.80
2018-03-31T10:13:06.822Z,13.20
2018-03-31T10:15:34.293Z,13.40
2018-03-31T10:18:02.522Z,13.40
2018-03-31T10:20:29.966Z,13.40
2018-03-31T10:22:57.444Z,12.90
2018-03-31T10:25:24.912Z,12.80
2018-03-31T10:27:52.352Z,12.60
2018-03-31T10:30:19.884Z,12.60
2018-03-31T10:32:48.057Z,12.70
2018-03-31T10:35:15.554Z,12.70
2018-03-31T10:37:42.995Z,12.70
2018-03-31T10:40:10.584Z,12.60
2018-03-31T10:42:38.059Z,12.50
2018-03-31T10:45:05.731Z,12.80
2018-03-31T10:47:33.231Z,12.80
2018-03-31T10:50:01.447Z,13.30
2018-03-31T10:52:28.913Z,13.30
2018-03-31T10:54:56.369Z,13.10
2018-03-31T10:57:23.853Z,12.90
2018-03-31T10:59:51.315Z,13.20
2018-03-31T11:02:18.789Z,14.20
2018-03-31T11:04:46.277Z,14.20
2018-03-31T11:07:13.840Z,14.20
2018-03-31T11:09:41.290Z,13.90
2018-03-31T11:12:09.511Z,13.10
2018-03-31T11:14:37.067Z,13.10
2018-03-31T11:17:04.490Z,13.20
2018-03-31T11:19:32.779Z,14.50
2018-03-31T11:22:01.555Z,14.50
2018-03-31T11:24:29.077Z,15.40
2018-03-31T11:26:56.647Z,15.80
2018-03-31T11:29:24.109Z,16.20
2018-03-31T11:31:57.157Z,16.60
2018-03-31T11:34:24.604Z,16.70
2018-03-31T11:36:52.100Z,16.10
2018-03-31T11:39:19.540Z,15.10
2018-03-31T11:41:47.007Z,14.40
2018-03-31T11:47:07.302Z,14.70
2018-03-31T11:49:36.824Z,17.10
2018-03-31T11:52:04.229Z,18.40
2018-03-31T12:17:06.492Z,17.80
2018-03-31T12:19:34.665Z,18.40
2018-03-31T12:22:02.835Z,18.40
2018-03-31T12:24:31.081Z,16.40
2018-03-31T12:27:01.383Z,16.30
2018-03-31T12:29:32.045Z,16.10
2018-03-31T12:32:09.381Z,16.30
2018-03-31T12:34:39.776Z,17.00
2018-03-31T12:37:15.108Z,17.40
2018-03-31T12:39:42.732Z,19.60
2018-03-31T12:42:11.157Z,21.00
2018-03-31T12:44:38.658Z,21.20
2018-03-31T12:47:06.968Z,22.10
2018-03-31T12:49:35.240Z,20.40
2018-03-31T12:52:03.843Z,20.60
2018-03-31T12:54:31.754Z,20.50
2018-03-31T12:56:59.667Z,21.70
2018-03-31T12:59:27.123Z,22.10
2018-03-31T13:01:54.560Z,22.60
2018-03-31T13:04:23.149Z,24.80
2018-03-31T13:06:51.666Z,25.10
2018-03-31T13:09:19.194Z,25.00
2018-03-31T13:11:46.626Z,24.40
2018-03-31T13:14:13.921Z,23.80
2018-03-31T13:16:41.400Z,23.90
2018-03-31T13:19:08.831Z,23.40
2018-03-31T13:21:36.281Z,22.00
2018-03-31T13:24:04.786Z,20.10
2018-03-31T13:26:32.296Z,19.00
2018-03-31T13:28:59.722Z,19.00
2018-03-31T13:31:29.290Z,20.40
2018-03-31T13:33:56.745Z,22.40
2018-03-31T13:36:28.436Z,22.40
2018-03-31T13:38:55.937Z,22.00
2018-03-31T13:41:23.492Z,20.90
2018-03-31T13:43:50.994Z,19.60
2018-03-31T13:46:18.493Z,18.10
2018-03-31T13:48:46.176Z,18.50
2018-03-31T13:51:13.649Z,19.50
2018-03-31T13:53:42.240Z,19.30
2018-03-31T13:56:10.040Z,18.10
2018-03-31T13:58:37.621Z,17.40
2018-03-31T14:01:05.917Z,17.30
2018-03-31T14:03:33.401Z,17.30
2018-03-31T14:06:00.856Z,18.30
2018-03-31T14:08:28.429Z,19.40
2018-03-31T14:10:56.226Z,20.10
2018-03-31T14:13:26.548Z,21.50
2018-03-31T14:15:54.141Z,21.40
2018-03-31T14:18:21.728Z,22.00
2018-03-31T14:20:49.947Z,21.20
2018-03-31T14:23:17.418Z,21.20
2018-03-31T14:25:46.649Z,19.20
2018-03-31T14:28:14.091Z,19.10
2018-03-31T14:30:42.297Z,17.90
2018-03-31T14:33:09.786Z,17.90
2018-03-31T14:35:37.258Z,16.90
2018-03-31T14:38:04.490Z,16.20
2018-03-31T14:40:31.944Z,15.90
2018-03-31T14:42:59.741Z,15.70
2018-03-31T14:45:27.365Z,15.60
2018-03-31T14:47:54.801Z,15.40
2018-03-31T14:50:22.277Z,15.20
2018-03-31T14:52:49.802Z,15.00
2018-03-31T14:55:18.028Z,14.80
2018-03-31T14:57:47.535Z,14.70
2018-03-31T15:00:14.973Z,14.60
2018-03-31T15:02:42.262Z,14.50
2018-03-31T15:05:09.736Z,14.20
2018-03-31T15:07:37.251Z,14.10
2018-03-31T15:10:04.527Z,14.20
2018-03-31T15:12:32.010Z,14.30
2018-03-31T15:14:59.505Z,14.20
2018-03-31T15:17:27.063Z,14.20
2018-03-31T15:19:54.589Z,14.40
2018-03-31T15:22:22.116Z,14.40
2018-03-31T15:24:50.721Z,14.50
2018-03-31T15:27:22.919Z,14.70
2018-03-31T15:29:50.444Z,14.70
2018-03-31T15:32:17.929Z,14.80
2018-03-31T15:34:45.434Z,14.80
2018-03-31T15:37:13.127Z,14.40
2018-03-31T15:39:40.605Z,14.00
2018-03-31T15:42:08.062Z,14.00
2018-03-31T15:44:35.527Z,14.00
2018-03-31T15:47:05.731Z,13.90
2018-03-31T15:49:33.231Z,13.90
2018-03-31T15:52:00.688Z,13.90
2018-03-31T15:54:28.164Z,13.70
2018-03-31T15:56:55.627Z,13.60
2018-03-31T15:59:23.864Z,13.50
2018-03-31T16:01:51.361Z,13.50
2018-03-31T16:04:18.787Z,13.50
2018-03-31T16:06:46.266Z,13.50
2018-03-31T16:09:13.690Z,13.50
2018-03-31T16:11:41.156Z,13.70
2018-03-31T16:14:08.599Z,13.70
2018-03-31T16:16:36.068Z,13.60
2018-03-31T16:19:04.425Z,13.50
2018-03-31T16:21:31.870Z,13.50
2018-03-31T16:24:00.091Z,13.50
2018-03-31T16:26:27.532Z,13.50
2018-03-31T16:28:55.007Z,13.40
2018-03-31T16:31:22.474Z,13.30
2018-03-31T16:33:49.941Z,13.10
2018-03-31T16:36:25.092Z,13.00
2018-03-31T16:38:53.429Z,13.00
2018-03-31T16:41:20.946Z,13.00
2018-03-31T16:43:48.401Z,12.90
2018-03-31T16:46:15.862Z,12.90
2018-03-31T16:48:43.275Z,12.80
2018-03-31T16:51:10.798Z,12.70
2018-03-31T16:53:40.363Z,12.70
2018-03-31T16:56:08.957Z,12.60
2018-03-31T16:58:36.438Z,12.50
2018-03-31T17:01:04.033Z,12.50
2018-03-31T17:03:35.408Z,12.40
2018-03-31T17:06:02.838Z,12.40
2018-03-31T17:08:31.092Z,12.20
2018-03-31T17:10:58.650Z,12.10
2018-03-31T17:13:26.232Z,12.10
2018-03-31T17:15:54.544Z,12.00
2018-03-31T17:18:21.989Z,11.80
2018-03-31T17:20:50.194Z,11.60
2018-03-31T17:23:18.743Z,11.60
2018-03-31T17:25:47.070Z,11.30
2018-03-31T17:28:14.500Z,11.20
2018-03-31T17:30:41.984Z,11.00
2018-03-31T17:33:09.490Z,10.60
2018-03-31T17:35:36.958Z,10.40
2018-03-31T17:38:05.148Z,9.90
2018-03-31T17:40:33.372Z,9.70
2018-03-31T17:43:00.849Z,9.60
2018-03-31T17:45:28.264Z,9.40
2018-03-31T17:47:55.700Z,9.20
2018-03-31T17:50:23.891Z,9.00
2018-03-31T17:52:51.375Z,8.90
2018-03-31T17:55:19.882Z,8.90
2018-03-31T17:57:47.375Z,8.70
2018-03-31T18:00:15.379Z,8.40
2018-03-31T18:02:42.872Z,8.40
2018-03-31T18:05:10.348Z,8.30
2018-03-31T18:07:37.784Z,8.20
2018-03-31T18:10:05.269Z,8.10
2018-03-31T18:12:32.747Z,8.00
2018-03-31T18:15:01.060Z,7.80
2018-03-31T18:17:28.658Z,7.80
2018-03-31T18:19:56.128Z,7.70
2018-03-31T18:22:23.585Z,7.60
2018-03-31T18:24:51.010Z,7.50
2018-03-31T18:27:18.476Z,7.40
2018-03-31T18:29:45.913Z,7.30
2018-03-31T18:32:13.376Z,7.20
2018-03-31T18:34:40.845Z,7.00
2018-03-31T18:37:08.323Z,6.90
2018-03-31T18:39:35.842Z,6.90
2018-03-31T18:42:03.273Z,6.80
2018-03-31T18:44:30.748Z,6.70
2018-03-31T18:46:58.290Z,6.70
2018-03-31T18:49:26.977Z,6.60
2018-03-31T18:51:54.406Z,6.60
2018-03-31T18:54:21.862Z,6.60
2018-03-31T18:56:49.282Z,6.50
2018-03-31T18:59:16.959Z,6.50
2018-03-31T19:01:47.450Z,6.40
2018-03-31T19:04:15.096Z,6.30
2018-03-31T19:06:42.772Z,6.20
2018-03-31T19:09:10.253Z,6.10
2018-03-31T19:11:37.692Z,6.10
2018-03-31T19:14:05.135Z,6.00
2018-03-31T19:16:37.968Z,6.00
2018-03-31T19:19:06.211Z,5.90
2018-03-31T19:21:33.691Z,5.80
2018-03-31T19:24:01.173Z,5.70
2018-03-31T19:26:29.421Z,5.60
2018-03-31T19:28:56.862Z,5.60
2018-03-31T19:31:24.399Z,5.50
2018-03-31T19:33:51.881Z,5.50
2018-03-31T19:36:19.323Z,5.50
2018-03-31T19:38:46.813Z,5.50
2018-03-31T19:41:14.242Z,5.40
2018-03-31T19:43:44.978Z,5.40
2018-03-31T19:46:12.417Z,5.50
2018-03-31T19:48:42.072Z,5.40
2018-03-31T19:51:09.552Z,5.40
2018-03-31T19:53:37.009Z,5.30
2018-03-31T19:56:04.451Z,5.30
2018-03-31T19:58:31.881Z,5.20
2018-03-31T20:01:00.339Z,5.20
2018-03-31T20:03:27.897Z,5.10
2018-03-31T20:05:55.839Z,5.10
2018-03-31T20:08:23.589Z,5.00
2018-03-31T20:10:51.137Z,5.00
2018-03-31T20:13:18.596Z,4.90
2018-03-31T20:15:49.746Z,4.90
2018-03-31T20:18:17.450Z,4.90
2018-03-31T20:20:44.912Z,4.80
2018-03-31T20:23:12.447Z,4.80
2018-03-31T20:25:39.892Z,4.80
2018-03-31T20:28:08.625Z,4.80
2018-03-31T20:30:36.189Z,4.70
2018-03-31T20:33:03.692Z,4.60
2018-03-31T20:35:31.175Z,4.50
2018-03-31T20:37:58.598Z,4.50
2018-03-31T20:40:26.029Z,4.40
2018-03-31T20:42:53.486Z,4.40
2018-03-31T20:45:20.933Z,4.50
2018-03-31T20:47:48.430Z,4.40
2018-03-31T20:50:16.657Z,4.30
2018-03-31T20:52:44.130Z,4.30
2018-03-31T20:55:11.582Z,4.30
2018-03-31T20:57:39.036Z,4.30
2018-03-31T21:00:06.535Z,4.30
2018-03-31T21:02:33.982Z,4.30
2018-03-31T21:05:01.536Z,4.30
2018-03-31T21:07:29.014Z,4.30
2018-03-31T21:09:56.547Z,4.30
2018-03-31T21:12:24.782Z,4.20
2018-03-31T21:14:52.189Z,4.20
2018-03-31T21:17:19.647Z,4.20
2018-03-31T21:19:47.066Z,4.10
2018-03-31T21:22:14.526Z,4.00
2018-03-31T21:24:42.036Z,4.00
2018-03-31T21:27:10.216Z,4.00
2018-03-31T21:29:37.689Z,4.10
2018-03-31T21:32:06.117Z,4.10
2018-03-31T21:34:33.605Z,4.10
2018-03-31T21:37:01.044Z,4.00
2018-03-31T21:39:28.510Z,3.90
2018-03-31T21:41:55.955Z,3.80
2018-03-31T21:44:23.352Z,3.80
2018-03-31T21:46:50.808Z,3.70
2018-03-31T21:49:18.314Z,3.70
2018-03-31T21:51:45.816Z,3.70
2018-03-31T21:54:13.346Z,3.70
2018-03-31T21:56:40.605Z,3.70
2018-03-31T21:59:08.314Z,3.60
2018-03-31T22:01:36.720Z,3.60
2018-03-31T22:04:04.166Z,3.70
2018-03-31T22:06:32.353Z,3.80
2018-03-31T22:09:00.584Z,3.90
2018-03-31T22:11:28.006Z,3.90
2018-03-31T22:14:01.867Z,3.90
2018-03-31T22:16:29.861Z,4.00
2018-03-31T22:18:58.722Z,4.00
2018-03-31T22:21:26.240Z,4.00
2018-03-31T22:23:53.681Z,4.10
2018-03-31T22:26:21.728Z,4.10
2018-03-31T22:28:49.635Z,4.10
2018-03-31T22:31:17.102Z,4.10
2018-03-31T22:33:44.585Z,4.10
2018-03-31T22:36:12.007Z,4.10
2018-03-31T22:38:40.225Z,4.10
2018-03-31T22:41:07.676Z,4.10
2018-03-31T22:43:35.126Z,4.10
2018-03-31T22:46:02.567Z,4.10
2018-03-31T22:48:30.798Z,4.10
2018-03-31T22:51:01.690Z,4.10
2018-03-31T22:53:29.157Z,4.10
2018-03-31T22:55:56.594Z,4.10
2018-03-31T22:58:24.820Z,4.20
2018-03-31T23:00:52.245Z,4.20
2018-03-31T23:03:20.209Z,4.20
2018-03-31T23:05:47.668Z,4.20
2018-03-31T23:08:15.983Z,4.30
2018-03-31T23:10:44.448Z,4.30
2018-03-31T23:13:11.859Z,4.30
2018-03-31T23:15:39.306Z,4.30
2018-03-31T23:18:06.740Z,4.30
2018-03-31T23:20:35.097Z,4.30
2018-03-31T23:23:02.617Z,4.30
2018-03-31T23:25:30.044Z,4.30
2018-03-31T23:27:57.596Z,4.30
2018-03-31T23:30:25.039Z,4.30
2018-03-31T23:32:52.487Z,4.30
2018-03-31T23:35:20.680Z,4.30
2018-03-31T23:37:48.521Z,4.30
2018-03-31T23:40:15.979Z,4.30
2018-03-31T23:42:43.433Z,4.30
2018-03-31T23:45:11.485Z,4.50
2018-03-31T23:47:38.724Z,4.40
2018-03-31T23:50:06.191Z,4.50
2018-03-31T23:52:33.662Z,4.50
2018-03-31T23:55:01.114Z,4.40
2018-03-31T23:57:28.574Z,4.40
2018-03-31T23:59:56.020Z,4.50
